Terminal Aerodrome Forecast
Issued by NWS

Home | Current Version | Previous Version | Text Only | Print | Product List | Glossary On
Versions: 1 2 3 4 5 6 7 8 9 10 11 12
000
FTUS44 KLIX 032320
TAFMSY
TAF
KMSY 032320Z 0400/0424 13008KT P6SM FEW060
     FM041400 10010KT P6SM SCT025
     FM041600 12012KT P6SM BKN040=

USA.gov is the U.S. government's official web portal to all federal, state and local government web resources and services.